sensor_id;sensor_type;location;lat;lon;timestamp;P1;durP1;ratioP1;P2;durP2;ratioP2
7080;SDS011;3582;51.506;11.948;2023-06-22T00:01:10;14.93;;;13.83;;
7080;SDS011;3582;51.506;11.948;2023-06-22T00:03:36;16.37;;;14.87;;
7080;SDS011;3582;51.506;11.948;2023-06-22T00:06:02;16.50;;;15.00;;
7080;SDS011;3582;51.506;11.948;2023-06-22T00:08:28;16.37;;;15.00;;
7080;SDS011;3582;51.506;11.948;2023-06-22T00:10:54;17.87;;;16.37;;
7080;SDS011;3582;51.506;11.948;2023-06-22T00:13:20;16.37;;;15.07;;
7080;SDS011;3582;51.506;11.948;2023-06-22T00:15:46;16.90;;;15.47;;
7080;SDS011;3582;51.506;11.948;2023-06-22T00:18:12;17.00;;;15.60;;
7080;SDS011;3582;51.506;11.948;2023-06-22T00:20:38;17.17;;;15.80;;
7080;SDS011;3582;51.506;11.948;2023-06-22T00:23:05;17.87;;;16.57;;
7080;SDS011;3582;51.506;11.948;2023-06-22T00:25:37;17.90;;;16.40;;
7080;SDS011;3582;51.506;11.948;2023-06-22T00:28:06;18.80;;;17.27;;
7080;SDS011;3582;51.506;11.948;2023-06-22T00:30:33;19.37;;;17.83;;
7080;SDS011;3582;51.506;11.948;2023-06-22T00:32:59;17.37;;;16.10;;
7080;SDS011;3582;51.506;11.948;2023-06-22T00:35:26;18.37;;;16.50;;
7080;SDS011;3582;51.506;11.948;2023-06-22T00:37:54;17.07;;;15.53;;
7080;SDS011;3582;51.506;11.948;2023-06-22T00:40:25;20.43;;;17.97;;
7080;SDS011;3582;51.506;11.948;2023-06-22T00:42:51;18.17;;;16.77;;
7080;SDS011;3582;51.506;11.948;2023-06-22T00:45:17;18.70;;;16.80;;
7080;SDS011;3582;51.506;11.948;2023-06-22T00:47:43;18.60;;;16.90;;
7080;SDS011;3582;51.506;11.948;2023-06-22T00:50:09;18.87;;;17.37;;
7080;SDS011;3582;51.506;11.948;2023-06-22T00:52:39;18.60;;;16.93;;
7080;SDS011;3582;51.506;11.948;2023-06-22T00:55:11;19.60;;;17.93;;
7080;SDS011;3582;51.506;11.948;2023-06-22T00:57:37;20.00;;;18.33;;
7080;SDS011;3582;51.506;11.948;2023-06-22T01:00:04;20.80;;;19.00;;
7080;SDS011;3582;51.506;11.948;2023-06-22T01:02:34;18.33;;;16.80;;
7080;SDS011;3582;51.506;11.948;2023-06-22T01:05:01;18.50;;;16.73;;
7080;SDS011;3582;51.506;11.948;2023-06-22T01:08:12;18.03;;;16.53;;
7080;SDS011;3582;51.506;11.948;2023-06-22T01:11:05;22.20;;;17.87;;
7080;SDS011;3582;51.506;11.948;2023-06-22T01:13:07;20.60;;;18.90;;
7080;SDS011;3582;51.506;11.948;2023-06-22T01:15:37;17.90;;;16.30;;
7080;SDS011;3582;51.506;11.948;2023-06-22T01:18:05;17.73;;;16.20;;
7080;SDS011;3582;51.506;11.948;2023-06-22T01:20:34;18.80;;;17.40;;
7080;SDS011;3582;51.506;11.948;2023-06-22T01:25:35;19.10;;;17.40;;
7080;SDS011;3582;51.506;11.948;2023-06-22T01:28:06;18.63;;;17.13;;
7080;SDS011;3582;51.506;11.948;2023-06-22T01:30:40;19.33;;;17.77;;
7080;SDS011;3582;51.506;11.948;2023-06-22T01:33:06;20.13;;;18.10;;
7080;SDS011;3582;51.506;11.948;2023-06-22T01:35:35;19.30;;;17.43;;
7080;SDS011;3582;51.506;11.948;2023-06-22T01:38:01;19.80;;;18.10;;
7080;SDS011;3582;51.506;11.948;2023-06-22T01:40:30;21.60;;;19.73;;
7080;SDS011;3582;51.506;11.948;2023-06-22T01:42:56;23.27;;;21.30;;
7080;SDS011;3582;51.506;11.948;2023-06-22T01:45:23;22.37;;;19.73;;
7080;SDS011;3582;51.506;11.948;2023-06-22T01:47:49;22.07;;;19.97;;
7080;SDS011;3582;51.506;11.948;2023-06-22T01:50:15;24.47;;;21.97;;
7080;SDS011;3582;51.506;11.948;2023-06-22T01:52:41;21.40;;;19.50;;
7080;SDS011;3582;51.506;11.948;2023-06-22T01:55:08;23.13;;;20.97;;
7080;SDS011;3582;51.506;11.948;2023-06-22T01:57:34;22.53;;;20.40;;
7080;SDS011;3582;51.506;11.948;2023-06-22T02:00:01;24.60;;;22.33;;
7080;SDS011;3582;51.506;11.948;2023-06-22T02:02:31;22.20;;;20.30;;
7080;SDS011;3582;51.506;11.948;2023-06-22T02:04:59;23.67;;;21.30;;
7080;SDS011;3582;51.506;11.948;2023-06-22T02:07:48;24.80;;;22.50;;
7080;SDS011;3582;51.506;11.948;2023-06-22T02:10:16;22.67;;;20.87;;
7080;SDS011;3582;51.506;11.948;2023-06-22T02:12:44;25.13;;;22.83;;
7080;SDS011;3582;51.506;11.948;2023-06-22T02:15:11;25.23;;;22.73;;
7080;SDS011;3582;51.506;11.948;2023-06-22T02:17:37;25.00;;;22.73;;
7080;SDS011;3582;51.506;11.948;2023-06-22T02:20:04;24.77;;;22.63;;
7080;SDS011;3582;51.506;11.948;2023-06-22T02:22:33;25.63;;;23.13;;
7080;SDS011;3582;51.506;11.948;2023-06-22T02:24:59;24.70;;;22.50;;
7080;SDS011;3582;51.506;11.948;2023-06-22T02:27:26;23.60;;;21.70;;
7080;SDS011;3582;51.506;11.948;2023-06-22T02:29:52;24.07;;;21.57;;
7080;SDS011;3582;51.506;11.948;2023-06-22T02:32:18;23.00;;;20.93;;
7080;SDS011;3582;51.506;11.948;2023-06-22T02:34:44;24.80;;;22.70;;
7080;SDS011;3582;51.506;11.948;2023-06-22T02:37:15;24.70;;;22.27;;
7080;SDS011;3582;51.506;11.948;2023-06-22T02:39:41;27.80;;;25.17;;
7080;SDS011;3582;51.506;11.948;2023-06-22T02:42:07;26.97;;;24.20;;
7080;SDS011;3582;51.506;11.948;2023-06-22T02:44:35;29.07;;;26.47;;
7080;SDS011;3582;51.506;11.948;2023-06-22T02:47:01;133.97;;;91.53;;
7080;SDS011;3582;51.506;11.948;2023-06-22T02:49:27;29.67;;;26.83;;
7080;SDS011;3582;51.506;11.948;2023-06-22T02:51:55;26.47;;;23.83;;
7080;SDS011;3582;51.506;11.948;2023-06-22T02:54:24;27.13;;;24.53;;
7080;SDS011;3582;51.506;11.948;2023-06-22T02:56:50;29.30;;;26.20;;
7080;SDS011;3582;51.506;11.948;2023-06-22T02:59:16;30.00;;;27.03;;
7080;SDS011;3582;51.506;11.948;2023-06-22T03:01:42;27.70;;;25.10;;
7080;SDS011;3582;51.506;11.948;2023-06-22T03:04:09;27.63;;;25.03;;
7080;SDS011;3582;51.506;11.948;2023-06-22T03:06:35;29.90;;;27.00;;
7080;SDS011;3582;51.506;11.948;2023-06-22T03:09:03;28.30;;;25.37;;
7080;SDS011;3582;51.506;11.948;2023-06-22T03:11:30;28.43;;;25.63;;
7080;SDS011;3582;51.506;11.948;2023-06-22T03:13:56;27.03;;;24.43;;
7080;SDS011;3582;51.506;11.948;2023-06-22T03:16:22;27.80;;;23.90;;
7080;SDS011;3582;51.506;11.948;2023-06-22T03:18:48;26.43;;;23.63;;
7080;SDS011;3582;51.506;11.948;2023-06-22T03:21:14;25.73;;;23.10;;
7080;SDS011;3582;51.506;11.948;2023-06-22T03:23:40;26.60;;;24.07;;
7080;SDS011;3582;51.506;11.948;2023-06-22T03:26:07;26.47;;;23.97;;
7080;SDS011;3582;51.506;11.948;2023-06-22T03:28:33;25.37;;;23.03;;
7080;SDS011;3582;51.506;11.948;2023-06-22T03:30:59;24.77;;;22.37;;
7080;SDS011;3582;51.506;11.948;2023-06-22T03:33:25;24.97;;;21.60;;
7080;SDS011;3582;51.506;11.948;2023-06-22T03:35:51;23.60;;;21.30;;
7080;SDS011;3582;51.506;11.948;2023-06-22T03:38:17;24.77;;;22.30;;
7080;SDS011;3582;51.506;11.948;2023-06-22T03:40:43;25.43;;;22.60;;
7080;SDS011;3582;51.506;11.948;2023-06-22T03:43:09;23.73;;;21.13;;
7080;SDS011;3582;51.506;11.948;2023-06-22T03:45:34;23.40;;;21.10;;
7080;SDS011;3582;51.506;11.948;2023-06-22T03:48:00;24.57;;;22.00;;
7080;SDS011;3582;51.506;11.948;2023-06-22T03:50:27;22.90;;;20.67;;
7080;SDS011;3582;51.506;11.948;2023-06-22T03:52:53;21.63;;;19.53;;
7080;SDS011;3582;51.506;11.948;2023-06-22T03:55:22;22.20;;;20.33;;
7080;SDS011;3582;51.506;11.948;2023-06-22T03:57:48;22.20;;;20.17;;
7080;SDS011;3582;51.506;11.948;2023-06-22T04:00:14;24.20;;;21.17;;
7080;SDS011;3582;51.506;11.948;2023-06-22T04:02:43;23.27;;;20.60;;
7080;SDS011;3582;51.506;11.948;2023-06-22T04:05:09;23.63;;;21.33;;
7080;SDS011;3582;51.506;11.948;2023-06-22T04:07:35;21.70;;;19.73;;
7080;SDS011;3582;51.506;11.948;2023-06-22T04:10:02;22.30;;;20.30;;
7080;SDS011;3582;51.506;11.948;2023-06-22T04:12:28;20.83;;;19.17;;
7080;SDS011;3582;51.506;11.948;2023-06-22T04:14:54;20.50;;;18.13;;
7080;SDS011;3582;51.506;11.948;2023-06-22T04:17:20;21.10;;;19.10;;
7080;SDS011;3582;51.506;11.948;2023-06-22T04:19:46;20.00;;;18.10;;
7080;SDS011;3582;51.506;11.948;2023-06-22T04:22:12;18.93;;;17.33;;
7080;SDS011;3582;51.506;11.948;2023-06-22T04:24:38;18.93;;;17.30;;
7080;SDS011;3582;51.506;11.948;2023-06-22T04:27:04;20.30;;;18.60;;
7080;SDS011;3582;51.506;11.948;2023-06-22T04:29:30;19.13;;;17.13;;
7080;SDS011;3582;51.506;11.948;2023-06-22T04:31:56;21.03;;;18.70;;
7080;SDS011;3582;51.506;11.948;2023-06-22T04:34:23;23.33;;;21.33;;
7080;SDS011;3582;51.506;11.948;2023-06-22T04:36:53;22.40;;;20.43;;
7080;SDS011;3582;51.506;11.948;2023-06-22T04:39:19;18.20;;;16.60;;
7080;SDS011;3582;51.506;11.948;2023-06-22T04:41:45;18.10;;;16.60;;
7080;SDS011;3582;51.506;11.948;2023-06-22T04:44:11;19.70;;;17.67;;
7080;SDS011;3582;51.506;11.948;2023-06-22T04:46:38;20.70;;;16.20;;
7080;SDS011;3582;51.506;11.948;2023-06-22T04:49:07;22.83;;;16.80;;
7080;SDS011;3582;51.506;11.948;2023-06-22T04:51:41;20.80;;;17.97;;
7080;SDS011;3582;51.506;11.948;2023-06-22T04:54:08;24.00;;;19.50;;
7080;SDS011;3582;51.506;11.948;2023-06-22T04:56:34;19.20;;;17.30;;
7080;SDS011;3582;51.506;11.948;2023-06-22T04:59:00;19.20;;;17.27;;
7080;SDS011;3582;51.506;11.948;2023-06-22T05:01:27;17.90;;;16.33;;
7080;SDS011;3582;51.506;11.948;2023-06-22T05:03:54;21.07;;;18.50;;
7080;SDS011;3582;51.506;11.948;2023-06-22T05:06:22;20.07;;;18.20;;
7080;SDS011;3582;51.506;11.948;2023-06-22T05:08:54;23.90;;;20.30;;
7080;SDS011;3582;51.506;11.948;2023-06-22T05:11:22;20.57;;;18.57;;
7080;SDS011;3582;51.506;11.948;2023-06-22T05:13:48;18.73;;;17.13;;
7080;SDS011;3582;51.506;11.948;2023-06-22T05:16:14;20.70;;;18.60;;
7080;SDS011;3582;51.506;11.948;2023-06-22T05:18:40;20.57;;;18.47;;
7080;SDS011;3582;51.506;11.948;2023-06-22T05:21:06;20.60;;;18.60;;
7080;SDS011;3582;51.506;11.948;2023-06-22T05:23:32;30.47;;;21.03;;
7080;SDS011;3582;51.506;11.948;2023-06-22T05:25:58;22.90;;;20.00;;
7080;SDS011;3582;51.506;11.948;2023-06-22T05:28:24;21.73;;;17.90;;
7080;SDS011;3582;51.506;11.948;2023-06-22T05:30:50;27.53;;;18.17;;
7080;SDS011;3582;51.506;11.948;2023-06-22T05:33:16;21.27;;;19.43;;
7080;SDS011;3582;51.506;11.948;2023-06-22T05:35:42;22.00;;;19.70;;
7080;SDS011;3582;51.506;11.948;2023-06-22T05:38:08;24.87;;;19.40;;
7080;SDS011;3582;51.506;11.948;2023-06-22T05:40:34;23.50;;;20.10;;
7080;SDS011;3582;51.506;11.948;2023-06-22T05:43:00;20.57;;;17.97;;
7080;SDS011;3582;51.506;11.948;2023-06-22T05:45:26;17.90;;;16.10;;
7080;SDS011;3582;51.506;11.948;2023-06-22T05:47:52;23.53;;;17.33;;
7080;SDS011;3582;51.506;11.948;2023-06-22T05:50:18;20.93;;;18.33;;
7080;SDS011;3582;51.506;11.948;2023-06-22T05:52:44;18.70;;;17.07;;
7080;SDS011;3582;51.506;11.948;2023-06-22T05:55:10;21.30;;;19.30;;
7080;SDS011;3582;51.506;11.948;2023-06-22T05:57:36;18.57;;;16.87;;
7080;SDS011;3582;51.506;11.948;2023-06-22T06:00:02;18.90;;;16.97;;
7080;SDS011;3582;51.506;11.948;2023-06-22T06:02:31;19.27;;;16.93;;
7080;SDS011;3582;51.506;11.948;2023-06-22T06:04:58;22.10;;;17.37;;
7080;SDS011;3582;51.506;11.948;2023-06-22T06:07:24;18.60;;;16.80;;
7080;SDS011;3582;51.506;11.948;2023-06-22T06:09:51;18.37;;;15.80;;
7080;SDS011;3582;51.506;11.948;2023-06-22T06:12:17;17.30;;;15.50;;
7080;SDS011;3582;51.506;11.948;2023-06-22T06:14:43;22.07;;;17.10;;
7080;SDS011;3582;51.506;11.948;2023-06-22T06:17:09;18.30;;;16.80;;
7080;SDS011;3582;51.506;11.948;2023-06-22T06:19:35;21.03;;;16.13;;
7080;SDS011;3582;51.506;11.948;2023-06-22T06:22:01;18.00;;;16.27;;
7080;SDS011;3582;51.506;11.948;2023-06-22T06:24:26;18.50;;;16.70;;
7080;SDS011;3582;51.506;11.948;2023-06-22T06:26:52;19.37;;;17.23;;
7080;SDS011;3582;51.506;11.948;2023-06-22T06:29:18;17.77;;;15.70;;
7080;SDS011;3582;51.506;11.948;2023-06-22T06:31:44;17.77;;;16.20;;
7080;SDS011;3582;51.506;11.948;2023-06-22T06:34:10;18.27;;;16.53;;
7080;SDS011;3582;51.506;11.948;2023-06-22T06:36:36;17.30;;;15.60;;
7080;SDS011;3582;51.506;11.948;2023-06-22T06:39:02;17.20;;;15.60;;
7080;SDS011;3582;51.506;11.948;2023-06-22T06:41:28;17.10;;;15.40;;
7080;SDS011;3582;51.506;11.948;2023-06-22T06:43:54;19.60;;;17.37;;
7080;SDS011;3582;51.506;11.948;2023-06-22T06:46:20;17.47;;;15.97;;
7080;SDS011;3582;51.506;11.948;2023-06-22T06:48:46;17.73;;;16.33;;
7080;SDS011;3582;51.506;11.948;2023-06-22T06:51:13;22.53;;;17.60;;
7080;SDS011;3582;51.506;11.948;2023-06-22T06:53:38;18.07;;;16.17;;
7080;SDS011;3582;51.506;11.948;2023-06-22T06:56:04;16.93;;;15.40;;
7080;SDS011;3582;51.506;11.948;2023-06-22T06:58:31;19.07;;;15.47;;
7080;SDS011;3582;51.506;11.948;2023-06-22T07:00:57;16.30;;;14.93;;
7080;SDS011;3582;51.506;11.948;2023-06-22T07:03:23;16.10;;;14.80;;
7080;SDS011;3582;51.506;11.948;2023-06-22T07:05:49;17.57;;;15.90;;
7080;SDS011;3582;51.506;11.948;2023-06-22T07:08:15;26.33;;;17.80;;
7080;SDS011;3582;51.506;11.948;2023-06-22T07:10:41;16.87;;;15.27;;
7080;SDS011;3582;51.506;11.948;2023-06-22T07:13:07;17.50;;;15.70;;
7080;SDS011;3582;51.506;11.948;2023-06-22T07:15:33;17.93;;;16.07;;
7080;SDS011;3582;51.506;11.948;2023-06-22T07:17:59;17.60;;;16.10;;
7080;SDS011;3582;51.506;11.948;2023-06-22T07:20:25;18.27;;;16.63;;
7080;SDS011;3582;51.506;11.948;2023-06-22T07:22:51;17.90;;;16.50;;
7080;SDS011;3582;51.506;11.948;2023-06-22T07:25:17;91.40;;;56.47;;
7080;SDS011;3582;51.506;11.948;2023-06-22T07:27:56;18.53;;;15.70;;
7080;SDS011;3582;51.506;11.948;2023-06-22T07:30:22;19.43;;;17.10;;
7080;SDS011;3582;51.506;11.948;2023-06-22T07:32:48;16.33;;;15.03;;
7080;SDS011;3582;51.506;11.948;2023-06-22T07:35:14;19.90;;;18.20;;
7080;SDS011;3582;51.506;11.948;2023-06-22T07:37:41;18.17;;;16.47;;
7080;SDS011;3582;51.506;11.948;2023-06-22T07:40:07;16.70;;;15.40;;
7080;SDS011;3582;51.506;11.948;2023-06-22T07:42:34;17.60;;;16.20;;
7080;SDS011;3582;51.506;11.948;2023-06-22T07:45:00;18.90;;;17.20;;
7080;SDS011;3582;51.506;11.948;2023-06-22T07:47:27;19.57;;;17.70;;
7080;SDS011;3582;51.506;11.948;2023-06-22T07:49:54;18.10;;;16.50;;
7080;SDS011;3582;51.506;11.948;2023-06-22T07:52:22;18.33;;;16.50;;
7080;SDS011;3582;51.506;11.948;2023-06-22T07:54:48;17.30;;;15.63;;
7080;SDS011;3582;51.506;11.948;2023-06-22T07:57:14;16.97;;;15.57;;
7080;SDS011;3582;51.506;11.948;2023-06-22T07:59:40;17.40;;;15.63;;
7080;SDS011;3582;51.506;11.948;2023-06-22T08:02:06;16.57;;;15.20;;
7080;SDS011;3582;51.506;11.948;2023-06-22T08:04:33;15.63;;;14.27;;
7080;SDS011;3582;51.506;11.948;2023-06-22T08:06:59;17.23;;;15.67;;
7080;SDS011;3582;51.506;11.948;2023-06-22T08:09:27;16.20;;;15.00;;
7080;SDS011;3582;51.506;11.948;2023-06-22T08:11:54;15.57;;;14.27;;
7080;SDS011;3582;51.506;11.948;2023-06-22T08:14:21;16.73;;;13.70;;
7080;SDS011;3582;51.506;11.948;2023-06-22T08:16:48;15.10;;;14.00;;
7080;SDS011;3582;51.506;11.948;2023-06-22T08:19:13;16.30;;;15.00;;
7080;SDS011;3582;51.506;11.948;2023-06-22T08:21:39;15.93;;;14.43;;
7080;SDS011;3582;51.506;11.948;2023-06-22T08:24:05;16.10;;;14.80;;
7080;SDS011;3582;51.506;11.948;2023-06-22T08:26:32;14.87;;;13.67;;
7080;SDS011;3582;51.506;11.948;2023-06-22T08:29:02;15.20;;;14.00;;
7080;SDS011;3582;51.506;11.948;2023-06-22T08:31:28;17.30;;;15.57;;
7080;SDS011;3582;51.506;11.948;2023-06-22T08:33:54;15.43;;;14.07;;
7080;SDS011;3582;51.506;11.948;2023-06-22T08:36:19;14.43;;;13.33;;
7080;SDS011;3582;51.506;11.948;2023-06-22T08:38:45;15.60;;;14.40;;
7080;SDS011;3582;51.506;11.948;2023-06-22T08:41:15;15.27;;;14.07;;
7080;SDS011;3582;51.506;11.948;2023-06-22T08:43:42;16.80;;;15.40;;
7080;SDS011;3582;51.506;11.948;2023-06-22T08:46:09;16.63;;;14.03;;
7080;SDS011;3582;51.506;11.948;2023-06-22T08:48:35;15.17;;;13.73;;
7080;SDS011;3582;51.506;11.948;2023-06-22T08:51:01;20.57;;;16.10;;
7080;SDS011;3582;51.506;11.948;2023-06-22T08:53:27;17.53;;;15.80;;
7080;SDS011;3582;51.506;11.948;2023-06-22T08:55:53;16.40;;;15.10;;
7080;SDS011;3582;51.506;11.948;2023-06-22T08:58:19;15.43;;;14.13;;
7080;SDS011;3582;51.506;11.948;2023-06-22T09:00:46;15.53;;;14.20;;
7080;SDS011;3582;51.506;11.948;2023-06-22T09:03:12;15.17;;;13.60;;
7080;SDS011;3582;51.506;11.948;2023-06-22T09:05:38;16.17;;;14.77;;
7080;SDS011;3582;51.506;11.948;2023-06-22T09:08:04;15.37;;;14.17;;
7080;SDS011;3582;51.506;11.948;2023-06-22T09:10:30;15.10;;;13.90;;
7080;SDS011;3582;51.506;11.948;2023-06-22T09:12:56;14.50;;;13.40;;
7080;SDS011;3582;51.506;11.948;2023-06-22T09:15:22;14.80;;;13.73;;
7080;SDS011;3582;51.506;11.948;2023-06-22T09:17:48;16.43;;;13.80;;
7080;SDS011;3582;51.506;11.948;2023-06-22T09:20:14;14.97;;;13.57;;
7080;SDS011;3582;51.506;11.948;2023-06-22T09:22:40;24.60;;;13.23;;
7080;SDS011;3582;51.506;11.948;2023-06-22T09:25:06;14.27;;;13.17;;
7080;SDS011;3582;51.506;11.948;2023-06-22T09:27:32;14.17;;;13.07;;
7080;SDS011;3582;51.506;11.948;2023-06-22T09:29:58;14.73;;;13.53;;
7080;SDS011;3582;51.506;11.948;2023-06-22T09:32:25;15.23;;;13.80;;
7080;SDS011;3582;51.506;11.948;2023-06-22T09:34:51;15.07;;;13.77;;
7080;SDS011;3582;51.506;11.948;2023-06-22T09:37:18;15.10;;;13.70;;
7080;SDS011;3582;51.506;11.948;2023-06-22T09:39:43;13.70;;;12.67;;
7080;SDS011;3582;51.506;11.948;2023-06-22T09:42:09;14.37;;;13.27;;
7080;SDS011;3582;51.506;11.948;2023-06-22T09:44:36;13.57;;;12.57;;
7080;SDS011;3582;51.506;11.948;2023-06-22T09:47:02;12.83;;;11.80;;
7080;SDS011;3582;51.506;11.948;2023-06-22T09:49:28;15.17;;;12.80;;
7080;SDS011;3582;51.506;11.948;2023-06-22T09:51:54;13.23;;;11.93;;
7080;SDS011;3582;51.506;11.948;2023-06-22T09:54:20;13.10;;;12.10;;
7080;SDS011;3582;51.506;11.948;2023-06-22T09:56:46;13.00;;;11.90;;
7080;SDS011;3582;51.506;11.948;2023-06-22T09:59:12;12.80;;;11.60;;
7080;SDS011;3582;51.506;11.948;2023-06-22T10:01:38;13.20;;;12.30;;
7080;SDS011;3582;51.506;11.948;2023-06-22T10:04:04;25.77;;;12.40;;
7080;SDS011;3582;51.506;11.948;2023-06-22T10:06:30;13.40;;;12.20;;
7080;SDS011;3582;51.506;11.948;2023-06-22T10:08:56;12.33;;;11.50;;
7080;SDS011;3582;51.506;11.948;2023-06-22T10:11:22;13.83;;;12.77;;
7080;SDS011;3582;51.506;11.948;2023-06-22T10:13:53;11.73;;;10.67;;
7080;SDS011;3582;51.506;11.948;2023-06-22T10:16:19;13.70;;;12.40;;
7080;SDS011;3582;51.506;11.948;2023-06-22T10:18:45;14.87;;;12.20;;
7080;SDS011;3582;51.506;11.948;2023-06-22T10:21:11;14.10;;;12.07;;
7080;SDS011;3582;51.506;11.948;2023-06-22T10:23:37;11.57;;;10.43;;
7080;SDS011;3582;51.506;11.948;2023-06-22T10:26:03;10.50;;;9.70;;
7080;SDS011;3582;51.506;11.948;2023-06-22T10:28:29;12.20;;;11.10;;
7080;SDS011;3582;51.506;11.948;2023-06-22T10:30:55;9.30;;;8.60;;
7080;SDS011;3582;51.506;11.948;2023-06-22T10:33:21;11.50;;;10.60;;
7080;SDS011;3582;51.506;11.948;2023-06-22T10:35:47;11.57;;;10.40;;
7080;SDS011;3582;51.506;11.948;2023-06-22T10:38:13;11.40;;;10.60;;
7080;SDS011;3582;51.506;11.948;2023-06-22T10:40:39;10.07;;;9.30;;
7080;SDS011;3582;51.506;11.948;2023-06-22T10:43:05;12.03;;;11.03;;
7080;SDS011;3582;51.506;11.948;2023-06-22T10:45:31;11.63;;;10.73;;
7080;SDS011;3582;51.506;11.948;2023-06-22T10:47:57;14.40;;;13.20;;
7080;SDS011;3582;51.506;11.948;2023-06-22T10:50:23;9.80;;;9.07;;
7080;SDS011;3582;51.506;11.948;2023-06-22T10:52:49;11.77;;;10.87;;
7080;SDS011;3582;51.506;11.948;2023-06-22T10:55:15;9.80;;;9.00;;
7080;SDS011;3582;51.506;11.948;2023-06-22T10:57:41;11.10;;;10.30;;
7080;SDS011;3582;51.506;11.948;2023-06-22T11:00:09;9.50;;;8.70;;
7080;SDS011;3582;51.506;11.948;2023-06-22T11:02:36;10.13;;;9.43;;
7080;SDS011;3582;51.506;11.948;2023-06-22T11:05:02;10.70;;;9.80;;
7080;SDS011;3582;51.506;11.948;2023-06-22T11:07:28;10.27;;;9.47;;
7080;SDS011;3582;51.506;11.948;2023-06-22T11:09:54;11.87;;;10.67;;
7080;SDS011;3582;51.506;11.948;2023-06-22T11:12:20;11.83;;;9.23;;
7080;SDS011;3582;51.506;11.948;2023-06-22T11:14:46;9.70;;;8.80;;
7080;SDS011;3582;51.506;11.948;2023-06-22T11:17:12;9.07;;;8.27;;
7080;SDS011;3582;51.506;11.948;2023-06-22T11:19:38;10.23;;;8.60;;
7080;SDS011;3582;51.506;11.948;2023-06-22T11:22:04;7.30;;;6.70;;
7080;SDS011;3582;51.506;11.948;2023-06-22T11:24:30;9.57;;;8.70;;
7080;SDS011;3582;51.506;11.948;2023-06-22T11:26:56;9.53;;;8.73;;
7080;SDS011;3582;51.506;11.948;2023-06-22T11:29:22;8.43;;;7.70;;
7080;SDS011;3582;51.506;11.948;2023-06-22T11:31:48;11.80;;;8.97;;
7080;SDS011;3582;51.506;11.948;2023-06-22T11:34:14;8.60;;;8.00;;
7080;SDS011;3582;51.506;11.948;2023-06-22T11:36:40;9.60;;;8.60;;
7080;SDS011;3582;51.506;11.948;2023-06-22T11:39:07;9.17;;;8.20;;
7080;SDS011;3582;51.506;11.948;2023-06-22T11:41:34;9.87;;;8.97;;
7080;SDS011;3582;51.506;11.948;2023-06-22T11:44:01;9.17;;;8.47;;
7080;SDS011;3582;51.506;11.948;2023-06-22T11:46:27;10.37;;;9.27;;
7080;SDS011;3582;51.506;11.948;2023-06-22T11:48:53;9.50;;;8.80;;
7080;SDS011;3582;51.506;11.948;2023-06-22T11:51:19;9.20;;;8.10;;
7080;SDS011;3582;51.506;11.948;2023-06-22T11:53:45;10.10;;;9.40;;
7080;SDS011;3582;51.506;11.948;2023-06-22T11:56:10;9.87;;;9.10;;
7080;SDS011;3582;51.506;11.948;2023-06-22T11:58:36;10.00;;;9.10;;
7080;SDS011;3582;51.506;11.948;2023-06-22T12:01:02;9.73;;;8.87;;
7080;SDS011;3582;51.506;11.948;2023-06-22T12:03:28;10.07;;;9.03;;
7080;SDS011;3582;51.506;11.948;2023-06-22T12:05:55;13.40;;;9.47;;
7080;SDS011;3582;51.506;11.948;2023-06-22T12:08:21;10.40;;;9.50;;
7080;SDS011;3582;51.506;11.948;2023-06-22T12:10:47;10.03;;;9.23;;
7080;SDS011;3582;51.506;11.948;2023-06-22T12:13:13;10.03;;;9.23;;
7080;SDS011;3582;51.506;11.948;2023-06-22T12:15:39;10.00;;;9.00;;
7080;SDS011;3582;51.506;11.948;2023-06-22T12:18:05;10.70;;;9.87;;
7080;SDS011;3582;51.506;11.948;2023-06-22T12:20:31;10.33;;;9.47;;
7080;SDS011;3582;51.506;11.948;2023-06-22T12:22:57;15.27;;;11.10;;
7080;SDS011;3582;51.506;11.948;2023-06-22T12:25:23;11.70;;;10.77;;
7080;SDS011;3582;51.506;11.948;2023-06-22T12:27:49;10.97;;;10.17;;
7080;SDS011;3582;51.506;11.948;2023-06-22T12:30:15;10.00;;;9.20;;
7080;SDS011;3582;51.506;11.948;2023-06-22T12:32:41;10.50;;;9.50;;
7080;SDS011;3582;51.506;11.948;2023-06-22T12:35:07;9.83;;;9.03;;
7080;SDS011;3582;51.506;11.948;2023-06-22T12:37:38;9.40;;;8.80;;
7080;SDS011;3582;51.506;11.948;2023-06-22T12:40:04;9.43;;;8.77;;
7080;SDS011;3582;51.506;11.948;2023-06-22T12:42:30;9.40;;;8.40;;
7080;SDS011;3582;51.506;11.948;2023-06-22T12:44:56;11.70;;;9.87;;
7080;SDS011;3582;51.506;11.948;2023-06-22T12:47:22;9.30;;;8.40;;
7080;SDS011;3582;51.506;11.948;2023-06-22T12:49:48;10.43;;;9.63;;
7080;SDS011;3582;51.506;11.948;2023-06-22T12:52:14;9.73;;;9.03;;
7080;SDS011;3582;51.506;11.948;2023-06-22T12:54:40;11.03;;;10.00;;
7080;SDS011;3582;51.506;11.948;2023-06-22T12:57:06;10.10;;;9.20;;
7080;SDS011;3582;51.506;11.948;2023-06-22T12:59:32;14.60;;;10.60;;
7080;SDS011;3582;51.506;11.948;2023-06-22T13:01:58;9.70;;;8.90;;
7080;SDS011;3582;51.506;11.948;2023-06-22T13:04:24;11.67;;;10.40;;
7080;SDS011;3582;51.506;11.948;2023-06-22T13:06:50;9.50;;;8.70;;
7080;SDS011;3582;51.506;11.948;2023-06-22T13:09:17;9.70;;;9.07;;
7080;SDS011;3582;51.506;11.948;2023-06-22T13:11:43;9.20;;;8.17;;
7080;SDS011;3582;51.506;11.948;2023-06-22T13:14:10;8.70;;;8.10;;
7080;SDS011;3582;51.506;11.948;2023-06-22T13:16:36;9.30;;;8.50;;
7080;SDS011;3582;51.506;11.948;2023-06-22T13:19:02;15.07;;;13.17;;
7080;SDS011;3582;51.506;11.948;2023-06-22T13:21:27;9.70;;;8.90;;
7080;SDS011;3582;51.506;11.948;2023-06-22T13:23:53;10.10;;;9.40;;
7080;SDS011;3582;51.506;11.948;2023-06-22T13:26:20;9.43;;;8.73;;
7080;SDS011;3582;51.506;11.948;2023-06-22T13:28:47;8.70;;;8.00;;
7080;SDS011;3582;51.506;11.948;2023-06-22T13:31:13;10.03;;;9.37;;
7080;SDS011;3582;51.506;11.948;2023-06-22T13:33:38;9.87;;;9.17;;
7080;SDS011;3582;51.506;11.948;2023-06-22T13:36:05;11.13;;;10.00;;
7080;SDS011;3582;51.506;11.948;2023-06-22T13:38:32;10.50;;;9.70;;
7080;SDS011;3582;51.506;11.948;2023-06-22T13:40:58;9.93;;;8.93;;
7080;SDS011;3582;51.506;11.948;2023-06-22T13:43:24;13.83;;;10.73;;
7080;SDS011;3582;51.506;11.948;2023-06-22T13:45:50;9.57;;;8.83;;
7080;SDS011;3582;51.506;11.948;2023-06-22T13:48:16;11.13;;;10.13;;
7080;SDS011;3582;51.506;11.948;2023-06-22T13:50:42;9.73;;;8.83;;
7080;SDS011;3582;51.506;11.948;2023-06-22T13:53:08;10.10;;;9.37;;
7080;SDS011;3582;51.506;11.948;2023-06-22T13:55:34;10.60;;;9.47;;
7080;SDS011;3582;51.506;11.948;2023-06-22T13:58:00;10.40;;;9.60;;
7080;SDS011;3582;51.506;11.948;2023-06-22T14:00:26;9.93;;;9.07;;
7080;SDS011;3582;51.506;11.948;2023-06-22T14:02:53;9.67;;;8.83;;
7080;SDS011;3582;51.506;11.948;2023-06-22T14:05:19;10.13;;;9.40;;
7080;SDS011;3582;51.506;11.948;2023-06-22T14:07:45;9.83;;;8.70;;
7080;SDS011;3582;51.506;11.948;2023-06-22T14:10:11;10.57;;;9.50;;
7080;SDS011;3582;51.506;11.948;2023-06-22T14:12:37;9.80;;;9.10;;
7080;SDS011;3582;51.506;11.948;2023-06-22T14:15:03;10.30;;;9.23;;
7080;SDS011;3582;51.506;11.948;2023-06-22T14:17:29;10.60;;;10.00;;
7080;SDS011;3582;51.506;11.948;2023-06-22T14:19:55;9.17;;;8.47;;
7080;SDS011;3582;51.506;11.948;2023-06-22T14:22:21;9.43;;;8.63;;
7080;SDS011;3582;51.506;11.948;2023-06-22T14:24:47;10.47;;;9.67;;
7080;SDS011;3582;51.506;11.948;2023-06-22T14:27:14;9.50;;;8.83;;
7080;SDS011;3582;51.506;11.948;2023-06-22T14:29:40;11.17;;;10.47;;
7080;SDS011;3582;51.506;11.948;2023-06-22T14:32:06;10.40;;;9.70;;
7080;SDS011;3582;51.506;11.948;2023-06-22T14:34:33;9.77;;;9.07;;
7080;SDS011;3582;51.506;11.948;2023-06-22T14:37:01;9.90;;;9.30;;